Time;durP1;ratioP1;P1;durP2;ratioP2;P2;SDS_P1;SDS_P2;PMS_P1;PMS_P2;Temp;Humidity;BMP_temperature;BMP_pressure;BME280_temperature;BME280_humidity;BME280_pressure;Samples;Min_cycle;Max_cycle;Signal;HPM_P1;HPM_P2
2023/03/28 00:00:05;;;;;;;1.50;1.40;;;;;;;5.96;69.58;93795.84;5052738;28;20410;-76
2023/03/28 00:02:30;;;;;;;1.40;1.30;;;;;;;5.92;69.87;93814.75;5061669;28;20457;-76
2023/03/28 00:04:58;;;;;;;1.43;1.33;;;;;;;5.57;69.91;93790.75;5056333;28;20203;-76
2023/03/28 00:07:25;;;;;;;1.70;1.60;;;;;;;5.35;70.15;93816.31;5060215;28;20433;-76
2023/03/28 00:09:51;;;;;;;1.50;1.40;;;;;;;5.22;70.12;93824.16;5069763;28;20853;-76
2023/03/28 00:12:16;;;;;;;1.40;1.30;;;;;;;5.18;71.26;93820.38;5053448;28;20414;-76
2023/03/28 00:14:42;;;;;;;1.20;1.20;;;;;;;5.15;70.33;93821.56;5049756;28;20419;-76
2023/03/28 00:17:07;;;;;;;1.08;1.08;;;;;;;5.15;70.36;93823.38;5049513;28;20422;-76
2023/03/28 00:19:33;;;;;;;1.20;1.10;;;;;;;5.16;69.83;93851.88;5049671;28;20917;-76
2023/03/28 00:21:58;;;;;;;1.52;1.30;;;;;;;5.05;70.11;93852.47;5063118;28;20414;-76
2023/03/28 00:24:25;;;;;;;1.40;1.30;;;;;;;4.89;70.45;93860.69;5061406;28;20497;-76
2023/03/28 00:26:53;;;;;;;1.50;1.40;;;;;;;4.60;71.58;93877.50;5050046;28;20494;-76
2023/03/28 00:29:19;;;;;;;1.60;1.50;;;;;;;4.58;72.27;93853.47;5065549;28;20421;-76
2023/03/28 00:31:47;;;;;;;1.40;1.30;;;;;;;4.74;71.36;93871.34;5061240;28;20456;-76
2023/03/28 00:34:12;;;;;;;1.58;1.48;;;;;;;4.77;71.53;93885.75;5069859;28;20452;-76
2023/03/28 00:36:40;;;;;;;1.60;1.50;;;;;;;4.90;71.30;93873.53;5061162;28;20872;-76
2023/03/28 00:39:09;;;;;;;1.75;1.65;;;;;;;4.86;71.59;93887.16;5053906;28;20890;-76
2023/03/28 00:41:38;;;;;;;1.90;1.80;;;;;;;4.68;71.74;93894.75;5049509;28;20458;-76
2023/03/28 00:44:56;;;;;;;2.42;1.95;;;;;;;4.69;71.94;93896.38;5059070;28;20400;-76
2023/03/28 00:47:42;;;;;;;1.92;1.83;;;;;;;4.83;70.79;93919.66;5044811;28;20844;-76
2023/03/28 00:50:26;;;;;;;2.40;2.10;;;;;;;4.76;70.53;93903.19;5052273;28;20434;-76
2023/03/28 00:53:07;;;;;;;2.60;2.40;;;;;;;4.51;70.98;93915.19;5069390;28;20484;-76
2023/03/28 00:55:39;;;;;;;2.88;2.67;;;;;;;4.40;71.40;93923.59;5069214;28;20448;-76
2023/03/28 00:58:11;;;;;;;2.87;2.57;;;;;;;4.47;72.41;93933.03;5069248;28;20409;-76
2023/03/28 01:00:40;;;;;;;4.50;2.53;;;;;;;4.59;72.46;93932.44;5070192;28;20406;-76
2023/03/28 01:03:06;;;;;;;3.08;2.38;;;;;;;4.55;71.00;93901.56;5068782;28;20437;-76
2023/03/28 01:05:33;;;;;;;3.30;2.30;;;;;;;4.73;70.73;93966.16;5069126;28;20449;-76
2023/03/28 01:08:21;;;;;;;2.42;2.22;;;;;;;4.59;70.17;93958.50;5069964;28;20515;-77
2023/03/28 01:10:47;;;;;;;2.73;2.43;;;;;;;4.50;70.98;93950.84;5064144;28;20910;-77
2023/03/28 01:13:16;;;;;;;2.60;2.38;;;;;;;4.53;70.72;93931.41;5061489;28;20940;-77
2023/03/28 01:15:43;;;;;;;2.72;2.53;;;;;;;4.70;70.31;93976.97;5070178;28;20421;-77
2023/03/28 01:18:10;;;;;;;2.30;2.10;;;;;;;4.67;69.87;93961.72;5069892;28;20418;-77
2023/03/28 01:21:06;;;;;;;2.97;2.67;;;;;;;4.75;69.88;93987.63;5057208;28;20454;-77
2023/03/28 01:24:00;;;;;;;2.50;2.30;;;;;;;4.61;69.04;93983.34;5060176;28;20482;-77
2023/03/28 01:26:44;;;;;;;3.33;2.60;;;;;;;4.63;68.94;93997.00;5069370;28;20413;-77
2023/03/28 01:29:48;;;;;;;2.60;2.40;;;;;;;4.62;68.53;94000.59;5064854;28;20493;-77
2023/03/28 01:32:54;;;;;;;2.70;2.50;;;;;;;4.55;69.18;94003.19;5049071;28;20431;-77
2023/03/28 01:35:32;;;;;;;2.83;2.45;;;;;;;4.52;68.94;94000.16;5060452;28;21029;-78
2023/03/28 01:38:11;;;;;;;3.23;2.43;;;;;;;4.52;68.64;94000.97;5062429;28;20414;-77
2023/03/28 01:40:44;;;;;;;4.03;2.53;;;;;;;4.62;67.96;94012.84;5069096;28;20409;-77
2023/03/28 01:43:15;;;;;;;2.55;2.35;;;;;;;4.64;67.52;93997.81;5053358;28;20912;-78
2023/03/28 01:45:59;;;;;;;2.28;2.10;;;;;;;4.63;67.42;94007.44;5061729;28;20448;-78
2023/03/28 01:48:53;;;;;;;2.50;2.30;;;;;;;4.62;67.14;94011.03;5061450;28;20980;-77
2023/03/28 01:51:36;;;;;;;2.90;2.70;;;;;;;4.48;67.31;94014.59;5052803;28;20800;-77
2023/03/28 01:54:27;;;;;;;2.72;2.38;;;;;;;4.18;67.90;94027.88;5052916;28;20407;-78
2023/03/28 01:57:10;;;;;;;2.60;2.40;;;;;;;3.77;68.62;93970.56;5071995;28;20448;-77
2023/03/28 01:59:38;;;;;;;3.13;2.90;;;;;;;4.04;68.83;94010.56;5072766;28;20448;-77
2023/03/28 02:02:20;;;;;;;2.70;2.28;;;;;;;3.70;70.36;94021.78;5072742;28;20411;-78
2023/03/28 02:04:47;;;;;;;2.60;2.40;;;;;;;3.71;70.33;94019.97;5065396;28;20837;-78
2023/03/28 02:07:15;;;;;;;2.95;2.65;;;;;;;3.63;70.54;93996.69;5060711;28;20419;-77
2023/03/28 02:09:43;;;;;;;2.80;2.60;;;;;;;3.51;70.23;94029.41;5060055;28;20507;-78
2023/03/28 02:12:23;;;;;;;9.70;6.33;;;;;;;3.52;71.30;94031.84;5064277;28;20425;-77
2023/03/28 02:14:52;;;;;;;3.20;2.90;;;;;;;3.49;71.27;94021.00;5064054;28;20432;-78
2023/03/28 02:17:20;;;;;;;3.00;2.70;;;;;;;3.57;71.28;94010.44;5060988;28;20408;-77
2023/03/28 02:19:53;;;;;;;4.63;3.55;;;;;;;3.41;71.58;93965.50;5052462;28;20820;-77
2023/03/28 02:22:23;;;;;;;3.47;3.00;;;;;;;3.74;71.05;93993.56;5052292;28;20468;-77
2023/03/28 02:24:50;;;;;;;4.00;3.60;;;;;;;3.95;70.22;94006.50;5059029;28;20989;-77
2023/03/28 02:27:19;;;;;;;7.22;3.63;;;;;;;3.97;70.43;94012.34;5053943;28;20509;-78
2023/03/28 02:29:46;;;;;;;3.45;3.15;;;;;;;3.97;70.30;94006.31;5052260;28;20445;-76
2023/03/28 02:32:13;;;;;;;3.27;2.87;;;;;;;3.98;70.38;94008.72;5051445;28;20828;-76
2023/03/28 02:34:40;;;;;;;3.75;3.45;;;;;;;3.91;69.38;93987.06;5051782;28;20407;-76
2023/03/28 02:37:44;;;;;;;3.08;2.70;;;;;;;4.05;69.87;94021.78;5051916;28;20443;-76
2023/03/28 02:40:21;;;;;;;4.18;3.10;;;;;;;4.18;68.72;94012.25;5058018;28;20495;-76
2023/03/28 02:43:14;;;;;;;2.90;2.70;;;;;;;4.28;69.03;94032.72;5071061;28;20544;-76
2023/03/28 02:46:03;;;;;;;2.67;2.47;;;;;;;4.32;69.03;94027.94;5071067;28;20425;-76
2023/03/28 02:49:07;;;;;;;3.70;2.92;;;;;;;4.27;68.54;94023.31;5063987;28;20450;-76
2023/03/28 02:52:03;;;;;;;2.22;2.03;;;;;;;4.13;68.78;94009.44;5070656;28;20438;-76
2023/03/28 02:54:38;;;;;;;4.20;2.40;;;;;;;4.32;67.77;94023.53;5070386;28;20477;-76
2023/03/28 02:57:11;;;;;;;2.60;2.28;;;;;;;4.32;68.22;94028.75;5059717;28;20427;-76
2023/03/28 02:59:42;;;;;;;2.38;2.17;;;;;;;4.38;68.24;94019.34;5051255;28;20411;-76
2023/03/28 03:02:08;;;;;;;2.35;2.08;;;;;;;4.35;68.12;94024.94;5050981;28;20435;-76
2023/03/28 03:04:33;;;;;;;2.20;2.00;;;;;;;4.19;67.44;94031.28;5050915;28;20411;-76
2023/03/28 03:07:02;;;;;;;2.30;2.10;;;;;;;3.69;68.73;93998.53;5071328;28;20406;-76
2023/03/28 03:09:28;;;;;;;2.50;2.05;;;;;;;3.84;68.92;94040.06;5064319;28;20877;-76
2023/03/28 03:11:53;;;;;;;3.17;2.00;;;;;;;3.68;69.04;94047.16;5070200;28;20509;-76
2023/03/28 03:14:18;;;;;;;2.73;2.30;;;;;;;3.63;69.55;94040.94;5058217;28;20505;-76
2023/03/28 03:16:44;;;;;;;2.53;2.20;;;;;;;3.82;69.22;94050.66;5051035;28;20399;-76
2023/03/28 03:19:09;;;;;;;2.00;1.90;;;;;;;3.70;69.49;94013.16;5050663;28;20411;-76
2023/03/28 03:21:37;;;;;;;2.27;1.87;;;;;;;3.97;67.23;94054.00;5054752;28;20427;-76
2023/03/28 03:24:03;;;;;;;2.07;1.70;;;;;;;3.99;66.87;94062.41;5054802;28;20758;-77
2023/03/28 03:26:29;;;;;;;1.70;1.60;;;;;;;4.04;66.23;94065.25;5051003;28;20414;-77
2023/03/28 03:28:56;;;;;;;2.67;1.95;;;;;;;3.78;65.63;94010.41;5056847;28;20422;-76
2023/03/28 03:31:22;;;;;;;4.03;2.00;;;;;;;3.99;65.94;94067.59;5070784;28;20429;-78
2023/03/28 03:33:47;;;;;;;3.72;2.97;;;;;;;3.93;66.52;94052.75;5056490;28;20785;-77
2023/03/28 03:36:16;;;;;;;3.40;2.90;;;;;;;4.13;65.82;94073.72;5067195;28;20431;-77
2023/03/28 03:38:41;;;;;;;1.83;1.63;;;;;;;3.95;65.59;94074.19;5058155;28;20794;-78
2023/03/28 03:41:06;;;;;;;2.70;2.00;;;;;;;3.67;65.14;94026.53;5060829;28;20430;-77
2023/03/28 03:43:33;;;;;;;2.87;1.90;;;;;;;3.80;65.40;94082.06;5057893;28;20498;-77
2023/03/28 03:45:59;;;;;;;1.98;1.70;;;;;;;3.77;66.30;94084.28;5058262;28;20421;-76
2023/03/28 03:48:25;;;;;;;2.63;1.97;;;;;;;3.89;65.41;94093.19;5062373;28;20417;-77
2023/03/28 03:50:50;;;;;;;3.50;2.20;;;;;;;3.78;64.84;94075.47;5063241;28;20490;-78
2023/03/28 03:53:15;;;;;;;1.60;1.50;;;;;;;3.92;64.41;94091.97;5070628;28;20459;-76
2023/03/28 03:55:41;;;;;;;1.40;1.30;;;;;;;3.82;64.36;94101.91;5070442;28;20795;-77
2023/03/28 03:58:06;;;;;;;1.63;1.52;;;;;;;3.65;64.82;94077.94;5070372;28;20932;-77
2023/03/28 04:00:32;;;;;;;1.70;1.60;;;;;;;3.91;64.02;94106.78;5070832;28;20441;-77
2023/03/28 04:02:57;;;;;;;3.40;2.30;;;;;;;3.92;64.02;94086.78;5070469;28;20491;-76
2023/03/28 04:05:23;;;;;;;1.83;1.70;;;;;;;3.93;63.75;94099.59;5055567;28;20896;-76
2023/03/28 04:07:49;;;;;;;1.77;1.67;;;;;;;4.07;63.10;94116.13;5061421;28;20426;-77
2023/03/28 04:10:14;;;;;;;3.42;1.55;;;;;;;4.05;62.83;94125.94;5070272;28;20519;-77
2023/03/28 04:12:40;;;;;;;3.53;2.00;;;;;;;3.91;64.01;94126.81;5051894;28;20442;-77
2023/03/28 04:15:06;;;;;;;2.20;2.00;;;;;;;3.93;63.91;94115.22;5063243;28;20413;-76
2023/03/28 04:17:33;;;;;;;2.35;2.00;;;;;;;3.98;64.31;94131.06;5070176;28;20768;-75
2023/03/28 04:20:12;;;;;;;3.83;2.20;;;;;;;3.98;63.86;94135.50;5050773;28;20167;-75
2023/03/28 04:22:39;;;;;;;2.17;1.80;;;;;;;4.00;63.94;94136.09;5061377;28;20653;-75
2023/03/28 04:25:05;;;;;;;2.30;2.00;;;;;;;4.01;64.39;94140.31;5052836;28;20795;-76
2023/03/28 04:27:31;;;;;;;2.00;1.80;;;;;;;4.04;64.19;94147.75;5050279;28;20403;-77
2023/03/28 04:29:59;;;;;;;3.75;2.60;;;;;;;4.05;63.97;94158.00;5060764;28;20969;-76
2023/03/28 04:32:25;;;;;;;4.22;2.53;;;;;;;3.86;64.25;94135.19;5055466;28;20411;-76
2023/03/28 04:34:50;;;;;;;5.65;3.30;;;;;;;4.07;64.79;94163.78;5049400;28;20409;-76
2023/03/28 04:37:16;;;;;;;3.83;2.73;;;;;;;4.07;64.40;94169.00;5051130;28;20256;-76
2023/03/28 04:39:52;;;;;;;5.97;3.10;;;;;;;4.11;64.36;94172.03;5050138;28;20423;-76
2023/03/28 04:42:18;;;;;;;3.85;2.70;;;;;;;4.22;63.57;94173.34;5049627;28;20920;-76
2023/03/28 04:44:44;;;;;;;2.93;2.50;;;;;;;4.26;62.24;94195.41;5049912;28;20490;-77
2023/03/28 04:47:12;;;;;;;5.28;3.45;;;;;;;4.18;61.15;94185.91;5049693;28;20538;-76
2023/03/28 04:49:37;;;;;;;5.40;3.00;;;;;;;4.00;60.56;94204.59;5066845;28;20409;-76
2023/03/28 04:52:04;;;;;;;4.50;3.13;;;;;;;4.04;60.46;94211.06;5069647;28;20425;-77
2023/03/28 04:54:30;;;;;;;4.22;2.95;;;;;;;3.95;59.57;94199.16;5066595;28;20500;-81
2023/03/28 04:56:55;;;;;;;3.10;2.80;;;;;;;3.91;59.21;94210.91;5057731;28;20499;-78
2023/03/28 04:59:21;;;;;;;3.30;3.00;;;;;;;3.77;59.63;94204.78;5058790;28;20430;-80
2023/03/28 05:01:49;;;;;;;3.72;3.10;;;;;;;3.47;60.83;94199.84;5063921;28;20414;-76
2023/03/28 05:04:20;;;;;;;5.25;3.78;;;;;;;3.52;61.42;94223.53;5064719;28;20446;-76
2023/03/28 05:06:46;;;;;;;7.55;4.20;;;;;;;3.38;62.33;94219.97;5053789;28;20422;-76
2023/03/28 05:09:11;;;;;;;4.72;3.55;;;;;;;3.20;61.75;94225.53;5062999;28;21001;-76
2023/03/28 05:11:38;;;;;;;5.27;4.07;;;;;;;3.25;62.20;94225.03;5073235;28;20476;-76
2023/03/28 05:14:03;;;;;;;3.97;3.58;;;;;;;3.25;63.49;94225.03;5073202;28;20910;-76
2023/03/28 05:16:29;;;;;;;4.40;3.77;;;;;;;3.32;63.65;94226.72;5074154;28;20420;-76
2023/03/28 05:18:55;;;;;;;4.70;4.20;;;;;;;3.46;62.48;94232.09;5066175;28;20899;-77
2023/03/28 05:21:20;;;;;;;5.18;4.00;;;;;;;3.60;61.86;94241.63;5056988;28;20399;-76
2023/03/28 05:23:46;;;;;;;5.60;4.45;;;;;;;3.65;62.59;94228.88;5061336;28;20414;-76
2023/03/28 05:26:11;;;;;;;4.67;4.27;;;;;;;3.73;61.51;94241.75;5069503;28;20078;-76
2023/03/28 05:28:37;;;;;;;4.67;3.63;;;;;;;3.55;61.28;94231.75;5064989;28;20410;-77
2023/03/28 05:31:05;;;;;;;6.63;4.63;;;;;;;3.59;61.67;94240.03;5060479;28;20431;-77
2023/03/28 05:33:31;;;;;;;7.47;5.60;;;;;;;3.66;61.93;94235.69;5061285;28;20413;-77
2023/03/28 05:35:56;;;;;;;9.13;5.50;;;;;;;3.46;60.97;94206.84;5069250;28;20419;-76
2023/03/28 05:38:22;;;;;;;5.43;4.23;;;;;;;3.70;61.08;94226.53;5067803;28;20920;-76
2023/03/28 05:40:47;;;;;;;5.17;3.90;;;;;;;3.86;62.26;94238.50;5059076;28;20417;-76
2023/03/28 05:43:13;;;;;;;5.77;3.73;;;;;;;3.95;59.93;94245.22;5068055;28;21127;-78
2023/03/28 05:45:40;;;;;;;4.93;3.93;;;;;;;3.89;59.82;94238.97;5073360;28;20421;-77
2023/03/28 05:48:06;;;;;;;8.77;5.13;;;;;;;3.91;60.16;94239.56;5053395;28;20423;-77
2023/03/28 05:50:31;;;;;;;6.60;4.37;;;;;;;4.01;60.28;94257.47;5068418;28;20456;-78
2023/03/28 05:52:57;;;;;;;5.72;3.80;;;;;;;3.97;59.73;94254.47;5064799;28;20865;-77
2023/03/28 05:55:22;;;;;;;5.73;3.80;;;;;;;3.86;58.46;94264.53;5072778;28;20509;-76
2023/03/28 05:57:47;;;;;;;4.07;3.30;;;;;;;3.54;58.59;94281.41;5061903;28;20922;-77
2023/03/28 06:00:14;;;;;;;5.95;3.58;;;;;;;3.29;59.86;94228.84;5060998;28;20451;-76
2023/03/28 06:02:40;;;;;;;4.13;3.17;;;;;;;3.49;58.93;94273.31;5052597;28;20822;-76
2023/03/28 06:05:06;;;;;;;3.92;3.50;;;;;;;3.52;60.75;94280.78;5060151;28;20442;-76
2023/03/28 06:07:32;;;;;;;5.20;3.47;;;;;;;3.50;60.60;94291.34;5052636;28;20454;-76
2023/03/28 06:09:59;;;;;;;5.40;3.70;;;;;;;3.50;60.62;94298.34;5062618;28;20214;-76
2023/03/28 06:12:24;;;;;;;5.80;4.03;;;;;;;3.53;61.10;94293.59;5056944;28;20256;-77
2023/03/28 06:14:50;;;;;;;5.20;3.97;;;;;;;3.59;61.02;94302.47;5059980;28;20653;-76
2023/03/28 06:17:15;;;;;;;4.30;3.73;;;;;;;3.53;61.42;94305.81;5068548;28;20549;-76
2023/03/28 06:19:40;;;;;;;5.77;4.77;;;;;;;3.62;62.51;94305.53;5062528;28;20187;-77
2023/03/28 06:22:06;;;;;;;4.63;4.07;;;;;;;3.73;61.81;94306.81;5053963;28;20700;-76
2023/03/28 06:24:31;;;;;;;7.70;4.90;;;;;;;3.79;62.05;94309.53;5070930;28;20898;-77
2023/03/28 06:26:57;;;;;;;6.47;5.37;;;;;;;3.90;61.15;94295.22;5066584;28;20183;-77
2023/03/28 06:29:23;;;;;;;7.83;4.90;;;;;;;3.97;59.82;94296.13;5062051;28;20561;-77
2023/03/28 06:31:49;;;;;;;9.80;5.40;;;;;;;4.04;58.66;94304.00;5063915;28;20206;-77
2023/03/28 06:34:16;;;;;;;6.20;5.10;;;;;;;4.03;57.44;94295.38;5057721;28;20186;-77
2023/03/28 06:36:41;;;;;;;4.93;4.20;;;;;;;4.04;57.31;94301.38;5066796;28;20181;-77
2023/03/28 06:39:09;;;;;;;5.63;3.97;;;;;;;3.89;56.91;94296.22;5056966;28;20273;-76
2023/03/28 06:41:35;;;;;;;5.63;3.80;;;;;;;3.79;57.25;94301.72;5068884;28;20647;-77
2023/03/28 06:44:00;;;;;;;5.43;4.00;;;;;;;3.77;57.87;94314.09;5063485;28;20228;-76
2023/03/28 06:46:25;;;;;;;5.20;4.07;;;;;;;3.79;57.23;94314.72;5062984;28;20175;-77
2023/03/28 06:48:51;;;;;;;3.77;3.33;;;;;;;3.81;57.85;94317.13;5067170;28;20205;-77
2023/03/28 06:51:16;;;;;;;5.50;3.90;;;;;;;3.64;57.85;94292.31;5070387;28;20210;-77
2023/03/28 06:53:42;;;;;;;5.87;4.10;;;;;;;3.80;58.81;94315.53;5061504;28;20201;-76
2023/03/28 06:56:07;;;;;;;6.50;4.77;;;;;;;3.89;59.98;94300.63;5068810;28;20554;-77
2023/03/28 06:58:33;;;;;;;6.57;4.40;;;;;;;3.96;58.85;94312.72;5072600;28;20185;-76
2023/03/28 07:00:58;;;;;;;8.47;5.60;;;;;;;4.01;59.86;94322.56;5062939;28;20202;-77
2023/03/28 07:03:24;;;;;;;11.43;5.83;;;;;;;4.08;59.98;94334.66;5067078;28;20699;-76
2023/03/28 07:05:50;;;;;;;10.07;5.90;;;;;;;4.13;60.24;94329.72;5061628;28;20182;-77
2023/03/28 07:08:15;;;;;;;6.40;4.53;;;;;;;4.11;58.67;94326.50;5070886;28;20640;-77
2023/03/28 07:10:42;;;;;;;5.60;4.70;;;;;;;4.13;57.50;94342.75;5061964;28;20240;-77
2023/03/28 07:13:07;;;;;;;6.70;4.57;;;;;;;4.12;58.75;94348.94;5062782;28;20267;-77
2023/03/28 07:15:33;;;;;;;6.33;4.27;;;;;;;4.00;58.77;94320.94;5067871;28;20262;-76
2023/03/28 07:17:59;;;;;;;6.23;4.53;;;;;;;4.18;58.56;94356.00;5052627;28;20183;-77
2023/03/28 07:20:25;;;;;;;6.53;4.50;;;;;;;4.03;57.20;94354.44;5061018;28;20179;-76
2023/03/28 07:22:51;;;;;;;11.20;4.63;;;;;;;3.87;56.76;94355.47;5058703;28;20190;-77
2023/03/28 07:25:16;;;;;;;9.23;5.50;;;;;;;3.83;56.96;94367.22;5060462;28;20243;-77
2023/03/28 07:27:42;;;;;;;8.60;5.33;;;;;;;3.72;57.84;94357.25;5067215;28;20181;-76
2023/03/28 07:30:08;;;;;;;8.80;5.20;;;;;;;3.70;58.33;94359.25;5070280;28;20685;-76
2023/03/28 07:32:35;;;;;;;5.40;4.57;;;;;;;3.71;57.36;94340.06;5059845;28;20771;-76
2023/03/28 07:35:01;;;;;;;6.43;4.10;;;;;;;3.84;57.51;94373.22;5058425;28;20675;-76
2023/03/28 07:37:26;;;;;;;6.13;3.87;;;;;;;3.90;57.58;94378.50;5066251;28;20179;-76
2023/03/28 07:39:53;;;;;;;5.10;4.07;;;;;;;3.89;56.79;94379.53;5062092;28;20182;-76
2023/03/28 07:42:19;;;;;;;4.27;3.77;;;;;;;3.96;57.78;94387.41;5058580;28;20181;-77
2023/03/28 07:44:44;;;;;;;5.83;3.93;;;;;;;4.06;57.71;94391.34;5069038;28;20170;-78
2023/03/28 07:47:10;;;;;;;5.80;3.30;;;;;;;4.08;55.97;94398.97;5072165;28;20232;-77
2023/03/28 07:49:35;;;;;;;4.77;3.57;;;;;;;4.06;56.04;94401.78;5070631;28;20192;-77
2023/03/28 07:52:01;;;;;;;6.40;4.00;;;;;;;3.96;55.97;94400.44;5052661;28;20210;-77
2023/03/28 07:54:27;;;;;;;5.40;3.77;;;;;;;3.88;56.18;94411.75;5063504;28;20545;-78
2023/03/28 07:56:52;;;;;;;5.83;3.77;;;;;;;3.88;56.29;94410.94;5061246;28;20262;-77
2023/03/28 07:59:18;;;;;;;7.10;3.80;;;;;;;3.71;56.03;94410.31;5066970;28;20197;-78
2023/03/28 08:01:44;;;;;;;4.50;3.60;;;;;;;3.61;56.35;94421.00;5063489;28;20410;-78
2023/03/28 08:04:11;;;;;;;3.80;3.40;;;;;;;3.69;57.11;94425.31;5066581;28;20194;-78
2023/03/28 08:06:37;;;;;;;5.00;3.80;;;;;;;3.74;57.39;94415.16;5053721;28;20261;-78
2023/03/28 08:09:15;;;;;;;6.47;4.13;;;;;;;3.64;63.52;94375.56;5067656;28;20221;-78
2023/03/28 08:11:42;;;;;;;6.37;4.07;;;;;;;3.81;56.50;94384.81;5064592;28;20202;-79
2023/03/28 08:14:11;;;;;;;5.93;3.80;;;;;;;4.09;56.04;94422.22;5060757;28;20170;-78
2023/03/28 08:16:37;;;;;;;7.53;4.33;;;;;;;4.20;57.45;94427.97;5068982;28;20181;-79
2023/03/28 08:19:02;;;;;;;3.63;3.07;;;;;;;4.05;57.61;94441.00;5067225;28;21625;-79
2023/03/28 08:21:30;;;;;;;6.37;4.23;;;;;;;3.98;59.39;94407.03;5054433;28;20175;-78
2023/03/28 08:23:56;;;;;;;7.17;4.27;;;;;;;4.05;59.24;94435.78;5053692;28;20175;-77
2023/03/28 08:26:22;;;;;;;12.60;4.97;;;;;;;4.10;59.94;94417.81;5052828;28;20231;-77
2023/03/28 08:28:48;;;;;;;7.43;4.63;;;;;;;4.41;58.58;94451.47;5059477;28;20178;-77
2023/03/28 08:31:15;;;;;;;10.67;5.40;;;;;;;4.52;58.23;94461.41;5068902;28;20356;-78
2023/03/28 08:33:47;;;;;;;4.57;3.77;;;;;;;4.49;55.48;94467.00;5063382;28;21033;-77
2023/03/28 08:36:13;;;;;;;6.80;4.80;;;;;;;4.03;56.34;94411.72;5069793;28;20706;-77
2023/03/28 08:38:49;;;;;;;6.07;3.60;;;;;;;4.39;56.98;94463.88;5067709;28;20650;-78
2023/03/28 08:41:27;;;;;;;3.77;3.00;;;;;;;4.65;56.22;94453.72;5066956;28;20170;-77
2023/03/28 08:43:55;;;;;;;7.00;3.77;;;;;;;4.73;55.08;94456.22;5059684;28;20626;-77
2023/03/28 08:46:24;;;;;;;3.40;3.10;;;;;;;4.70;58.08;94432.31;5060395;28;20253;-77
2023/03/28 08:48:51;;;;;;;5.37;3.23;;;;;;;4.70;54.16;94437.53;5063960;28;20196;-77
2023/03/28 08:51:25;;;;;;;5.07;3.40;;;;;;;5.00;54.50;94472.13;5066733;28;20691;-77
2023/03/28 08:54:02;;;;;;;4.47;3.63;;;;;;;4.95;54.40;94483.09;5066456;28;20185;-76
2023/03/28 08:56:31;;;;;;;7.00;4.80;;;;;;;4.94;54.37;94477.09;5059099;28;20550;-77
2023/03/28 08:59:17;;;;;;;6.27;4.30;;;;;;;4.73;54.82;94478.88;5060614;28;20556;-76
2023/03/28 09:01:43;;;;;;;7.50;4.37;;;;;;;4.72;55.26;94464.22;5060850;28;20228;-76
2023/03/28 09:04:26;;;;;;;3.93;3.23;;;;;;;4.85;54.74;94487.81;5061833;28;20319;-76
2023/03/28 09:07:01;;;;;;;3.80;3.30;;;;;;;4.70;54.25;94472.22;5067648;28;20171;-78
2023/03/28 09:09:45;;;;;;;6.90;4.00;;;;;;;4.68;55.08;94491.63;5067218;28;20216;-77
2023/03/28 09:12:17;;;;;;;9.10;5.60;;;;;;;4.79;56.62;94491.97;5063404;28;20991;-78
2023/03/28 09:15:13;;;;;;;11.40;6.20;;;;;;;5.00;56.06;94475.56;5065821;28;20182;-78
2023/03/28 09:18:09;;;;;;;11.03;5.27;;;;;;;4.88;55.55;94485.66;5058899;28;20288;-76
2023/03/28 09:20:46;;;;;;;11.47;6.27;;;;;;;4.96;57.22;94496.97;5059048;28;20172;-79
2023/03/28 09:23:23;;;;;;;7.97;5.20;;;;;;;5.00;56.85;94487.78;5065774;28;20194;-77
2023/03/28 09:26:02;;;;;;;6.73;4.17;;;;;;;4.64;56.13;94420.84;5065496;28;20635;-78
2023/03/28 09:28:53;;;;;;;4.40;3.90;;;;;;;4.89;55.39;94489.06;5061948;28;20174;-78
2023/03/28 09:31:24;;;;;;;5.63;3.60;;;;;;;4.66;56.74;94476.22;5068335;28;20202;-77
2023/03/28 09:33:53;;;;;;;7.83;4.93;;;;;;;4.50;56.71;94466.78;5058091;28;20572;-79
2023/03/28 09:36:22;;;;;;;7.00;4.57;;;;;;;4.57;57.09;94482.50;5060942;28;20183;-78
2023/03/28 09:38:58;;;;;;;7.47;4.27;;;;;;;4.61;56.80;94488.97;5057721;28;20282;-77
2023/03/28 09:41:42;;;;;;;8.47;5.27;;;;;;;4.59;58.64;94475.31;5066639;28;20180;-79
2023/03/28 09:44:14;;;;;;;8.70;4.63;;;;;;;4.72;58.14;94493.72;5062578;28;21073;-82
2023/03/28 09:46:47;;;;;;;7.97;4.27;;;;;;;4.73;59.05;94495.31;5055584;28;20564;-77
2023/03/28 09:49:17;;;;;;;6.57;4.30;;;;;;;4.60;57.65;94491.75;5068402;28;20178;-78
2023/03/28 09:51:43;;;;;;;7.57;4.17;;;;;;;4.70;57.35;94503.50;5062578;28;20211;-78
2023/03/28 09:54:08;;;;;;;5.87;4.27;;;;;;;4.78;57.98;94500.78;5068660;28;20171;-77
2023/03/28 09:56:40;;;;;;;8.40;3.87;;;;;;;4.97;57.17;94511.63;5054039;28;20181;-78
2023/03/28 09:59:28;;;;;;;4.17;3.67;;;;;;;5.02;55.21;94499.63;5069856;28;20557;-77
2023/03/28 10:01:56;;;;;;;9.80;5.57;;;;;;;5.07;54.28;94512.13;5064812;28;20237;-78
2023/03/28 10:04:27;;;;;;;5.53;4.30;;;;;;;5.13;53.87;94511.38;5068080;28;20230;-78
2023/03/28 10:07:15;;;;;;;7.50;4.17;;;;;;;4.82;53.42;94485.59;5064321;28;20189;-78
2023/03/28 10:09:52;;;;;;;7.40;4.50;;;;;;;4.91;54.12;94497.53;5066122;28;20549;-78
2023/03/28 10:12:24;;;;;;;11.37;5.63;;;;;;;5.18;54.52;94468.09;5062623;28;20179;-78
2023/03/28 10:14:50;;;;;;;8.20;4.90;;;;;;;5.72;52.71;94498.03;5067046;28;20936;-78
2023/03/28 10:17:18;;;;;;;8.37;4.70;;;;;;;6.02;52.16;94494.25;5070942;28;20186;-78
2023/03/28 10:19:47;;;;;;;9.47;4.83;;;;;;;6.21;52.63;94470.06;5065313;28;20267;-78
2023/03/28 10:22:25;;;;;;;8.73;3.80;;;;;;;6.41;50.69;94504.13;5065697;28;20209;-78
2023/03/28 10:24:51;;;;;;;7.80;5.00;;;;;;;6.31;49.51;94495.84;5066567;28;20655;-78
2023/03/28 10:27:31;;;;;;;6.10;3.27;;;;;;;6.04;48.86;94513.16;5057889;28;20167;-78
2023/03/28 10:30:07;;;;;;;4.90;3.57;;;;;;;5.94;50.72;94510.09;5061943;28;20280;-78
2023/03/28 10:32:33;;;;;;;9.37;3.40;;;;;;;5.86;50.52;94508.41;5066172;28;20178;-78
2023/03/28 10:35:14;;;;;;;6.00;3.97;;;;;;;5.60;51.09;94521.25;5073233;28;20182;-78
2023/03/28 10:37:41;;;;;;;5.80;4.20;;;;;;;5.54;51.92;94527.19;5066481;28;20173;-78
2023/03/28 10:40:21;;;;;;;7.73;4.77;;;;;;;5.52;52.76;94530.03;5065467;28;20282;-78
2023/03/28 10:42:50;;;;;;;8.87;4.60;;;;;;;5.48;53.50;94507.88;5065602;28;20182;-78
2023/03/28 10:45:28;;;;;;;5.17;3.37;;;;;;;5.78;52.03;94547.72;5072296;28;20189;-78
2023/03/28 10:47:58;;;;;;;5.83;4.03;;;;;;;5.73;52.03;94549.25;5063348;28;20186;-78
2023/03/28 10:50:35;;;;;;;6.33;3.43;;;;;;;5.63;53.49;94519.06;5073324;28;20268;-78
2023/03/28 10:53:03;;;;;;;6.90;4.17;;;;;;;5.85;54.13;94537.31;5068278;28;20198;-78
2023/03/28 10:55:39;;;;;;;6.37;4.10;;;;;;;5.99;53.60;94500.66;5066976;28;20185;-78
2023/03/28 10:58:19;;;;;;;6.77;3.93;;;;;;;6.18;53.88;94516.66;5069125;28;20171;-78
2023/03/28 11:01:16;;;;;;;7.03;4.17;;;;;;;6.33;55.09;94499.03;5061332;28;20215;-79
2023/03/28 11:03:55;;;;;;;39.10;21.57;;;;;;;6.58;53.61;94502.78;5064822;28;20296;-80
2023/03/28 11:06:37;;;;;;;8.00;5.20;;;;;;;6.47;52.65;94489.47;5065446;28;20704;-80
2023/03/28 11:09:20;;;;;;;6.43;4.53;;;;;;;6.84;53.72;94509.91;5073756;28;20169;-79
2023/03/28 11:11:57;;;;;;;5.20;4.07;;;;;;;6.82;50.56;94501.50;5064676;28;20190;-79
2023/03/28 11:14:38;;;;;;;5.60;3.70;;;;;;;6.77;50.73;94535.25;5064755;28;20174;-79
2023/03/28 11:17:23;;;;;;;5.63;3.30;;;;;;;6.84;49.76;94523.00;5064889;28;20247;-79
2023/03/28 11:20:09;;;;;;;6.33;3.97;;;;;;;6.88;49.81;94537.31;5060705;28;20171;-79
2023/03/28 11:22:56;;;;;;;6.20;3.13;;;;;;;6.80;48.31;94519.19;5064842;28;20182;-79
2023/03/28 11:25:41;;;;;;;3.80;2.93;;;;;;;6.64;48.44;94522.13;5061436;28;20185;-79
2023/03/28 11:28:20;;;;;;;6.67;3.97;;;;;;;6.61;49.38;94520.72;5063812;28;20188;-80
2023/03/28 11:30:51;;;;;;;7.70;3.97;;;;;;;6.58;49.72;94515.84;5064303;28;20683;-80
2023/03/28 11:33:30;;;;;;;5.30;3.43;;;;;;;6.17;47.08;94486.28;5061433;28;20714;-79
2023/03/28 11:36:06;;;;;;;5.37;3.30;;;;;;;6.50;47.86;94523.88;5060776;28;20715;-79
2023/03/28 11:38:34;;;;;;;4.60;3.23;;;;;;;6.56;48.10;94523.13;5057129;28;20178;-79
2023/03/28 11:41:07;;;;;;;5.63;3.27;;;;;;;6.77;48.35;94509.09;5064256;28;20175;-79
2023/03/28 11:43:51;;;;;;;4.70;3.43;;;;;;;6.82;47.41;94525.03;5064810;28;20186;-79
2023/03/28 11:46:23;;;;;;;5.23;3.10;;;;;;;6.54;48.31;94540.00;5072592;28;20612;-79
2023/03/28 11:49:15;;;;;;;7.27;3.40;;;;;;;6.53;47.89;94523.50;5072499;28;20161;-79
2023/03/28 11:51:54;;;;;;;16.57;3.87;;;;;;;6.69;47.94;94511.88;5064341;28;20709;-79
2023/03/28 11:54:36;;;;;;;5.63;4.07;;;;;;;6.68;47.35;94521.53;5064453;28;20186;-79
2023/03/28 11:57:27;;;;;;;4.40;3.17;;;;;;;6.61;46.32;94512.88;5060789;28;20236;-79
2023/03/28 12:00:28;;;;;;;3.57;2.53;;;;;;;6.56;44.99;94535.38;5065110;28;20205;-79